ENBN/BNN METAR and TAF weather

Enter ICAO airport designator
Station Type Date Time Source
ENBN METAR 2020/07/12 05:20 UTC NOAA

ENBN 120520Z AUTO 17010KT 140V200 9999NDV -SHRA FEW028/// BKN050/// OVC068/// 09/07 Q1011


Station Type Date Time Source
ENBN Decoded METAR 2020/07/12 05:20 UTC NOAA

Bronnoysund / Bronnoy, Norway (ENBN) 65-28N 012-13E 9M
Jul 12, 2020 - 01:20 AM EDT / 2020.07.12 0520 UTC
Wind: from the S (170 degrees) at 12 MPH (10 KT) (direction variable):0
Sky conditions: overcast
Weather: light rain showers
Temperature: 48 F (9 C)
Dew Point: 44 F (7 C)
Relative Humidity: 87%
Pressure (altimeter): 29.85 in. Hg (1011 hPa)
ob: ENBN 120520Z AUTO 17010KT 140V200 9999NDV -SHRA FEW028/// BKN050/// OVC068/// 09/07 Q1011
cycle: 5

Station Type Date Time Source
ENBN TAF 2011/03/27 18:12 UTC NOAA

TAF TAF ENBN 261700Z 2618/2718 CNL

Example: see airport list